createdAt,value
2017-04-06T00:00:58.948Z,0
2017-04-06T00:02:11.511Z,0
2017-04-06T00:03:24.011Z,0
2017-04-06T00:04:36.209Z,0
2017-04-06T00:05:48.131Z,0
2017-04-06T00:07:00.656Z,0
2017-04-06T00:08:13.429Z,0
2017-04-06T00:09:25.940Z,0
2017-04-06T00:10:38.436Z,0
2017-04-06T00:11:50.960Z,0
2017-04-06T00:13:03.480Z,0
2017-04-06T00:14:15.982Z,0
2017-04-06T00:15:28.538Z,0
2017-04-06T00:16:41.062Z,0
2017-04-06T00:17:53.611Z,0
2017-04-06T00:19:05.854Z,0
2017-04-06T00:20:18.084Z,0
2017-04-06T00:21:30.595Z,0
2017-04-06T00:22:43.149Z,0
2017-04-06T00:23:55.669Z,0
2017-04-06T00:25:07.617Z,0
2017-04-06T00:26:20.152Z,0
2017-04-06T00:27:32.709Z,0
2017-04-06T00:28:45.228Z,0
2017-04-06T00:29:58.089Z,0
2017-04-06T00:31:10.342Z,0
2017-04-06T00:32:22.866Z,0
2017-04-06T00:33:35.434Z,0
2017-04-06T00:34:47.932Z,0
2017-04-06T00:36:00.727Z,0
2017-04-06T00:37:12.651Z,0
2017-04-06T00:38:25.184Z,0
2017-04-06T00:39:37.723Z,0
2017-04-06T00:40:50.235Z,0
2017-04-06T00:42:02.456Z,0
2017-04-06T00:43:14.976Z,0
2017-04-06T00:44:27.490Z,0
2017-04-06T00:45:40.010Z,0
2017-04-06T00:46:52.789Z,0
2017-04-06T00:48:04.988Z,0
2017-04-06T00:49:17.535Z,0
2017-04-06T00:50:30.069Z,0
2017-04-06T00:51:42.276Z,0
2017-04-06T00:52:54.771Z,0
2017-04-06T00:54:07.014Z,0
2017-04-06T00:55:19.554Z,0
2017-04-06T00:56:31.781Z,0
2017-04-06T00:57:44.282Z,0
2017-04-06T00:58:56.815Z,0
2017-04-06T01:00:09.337Z,0
2017-04-06T01:01:21.569Z,0
2017-04-06T01:02:34.102Z,0
2017-04-06T01:03:46.634Z,0
2017-04-06T01:04:58.880Z,0
2017-04-06T01:06:11.104Z,0
2017-04-06T01:07:23.641Z,0
2017-04-06T01:08:35.845Z,0
2017-04-06T01:09:48.391Z,0
2017-04-06T01:11:00.932Z,0
2017-04-06T01:12:13.433Z,0
2017-04-06T01:13:25.666Z,0
2017-04-06T01:14:38.213Z,0
2017-04-06T01:15:50.740Z,0
2017-04-06T01:17:03.238Z,0
2017-04-06T01:18:15.761Z,0
2017-04-06T01:19:28.303Z,0
2017-04-06T01:20:40.818Z,0
2017-04-06T01:21:53.038Z,0
2017-04-06T01:23:05.591Z,0
2017-04-06T01:24:18.417Z,0
2017-04-06T01:25:30.963Z,0
2017-04-06T01:26:43.496Z,0
2017-04-06T01:27:56.016Z,0
2017-04-06T01:29:08.579Z,0
2017-04-06T01:30:21.137Z,0
2017-04-06T01:31:33.668Z,0
2017-04-06T01:32:46.183Z,0
2017-04-06T01:33:58.381Z,0
2017-04-06T01:35:10.926Z,0
2017-04-06T01:36:23.467Z,0
2017-04-06T01:37:35.996Z,0
2017-04-06T01:38:48.213Z,0
2017-04-06T01:40:00.459Z,0
2017-04-06T01:41:12.676Z,0
2017-04-06T01:42:25.185Z,0
2017-04-06T01:43:37.696Z,0
2017-04-06T01:44:50.260Z,0
2017-04-06T01:46:03.113Z,0
2017-04-06T01:47:15.030Z,0
2017-04-06T01:48:27.547Z,0
2017-04-06T01:49:40.076Z,0
2017-04-06T01:50:52.572Z,0
2017-04-06T01:52:05.121Z,0
2017-04-06T01:53:17.641Z,0
2017-04-06T01:54:29.566Z,0
2017-04-06T01:55:41.805Z,0
2017-04-06T01:56:54.029Z,0
2017-04-06T01:58:06.548Z,0
2017-04-06T01:59:19.097Z,0
2017-04-06T02:00:31.618Z,0
2017-04-06T02:01:44.164Z,0
2017-04-06T02:02:56.681Z,0
2017-04-06T02:04:09.185Z,0
2017-04-06T02:05:21.415Z,0
2017-04-06T02:06:33.947Z,0
2017-04-06T02:07:46.468Z,0
2017-04-06T02:08:59.006Z,0
2017-04-06T02:10:10.607Z,0
2017-04-06T02:11:23.157Z,0
2017-04-06T02:12:35.681Z,0
2017-04-06T02:13:47.919Z,0
2017-04-06T02:15:00.419Z,0
2017-04-06T02:16:12.686Z,0
2017-04-06T02:17:25.235Z,0
2017-04-06T02:18:38.095Z,0
2017-04-06T02:19:50.304Z,0
2017-04-06T02:21:02.512Z,0
2017-04-06T02:22:15.045Z,0
2017-04-06T02:23:27.584Z,0
2017-04-06T02:24:40.137Z,0
2017-04-06T02:25:52.649Z,0
2017-04-06T02:27:05.194Z,0
2017-04-06T02:28:17.748Z,0
2017-04-06T02:29:30.287Z,0
2017-04-06T02:30:42.816Z,0
2017-04-06T02:31:55.034Z,0
2017-04-06T02:33:07.557Z,0
2017-04-06T02:34:20.100Z,0
2017-04-06T02:35:32.645Z,0
2017-04-06T02:36:45.169Z,0
2017-04-06T02:37:57.741Z,0
2017-04-06T02:39:10.291Z,0
2017-04-06T02:40:23.104Z,0
2017-04-06T02:41:35.625Z,0
2017-04-06T02:42:47.846Z,0
2017-04-06T02:44:00.342Z,0
2017-04-06T02:45:12.867Z,0
2017-04-06T02:46:25.413Z,0
2017-04-06T02:47:37.938Z,0
2017-04-06T02:48:50.430Z,0
2017-04-06T02:50:02.947Z,0
2017-04-06T02:51:15.471Z,0
2017-04-06T02:52:27.984Z,0
2017-04-06T02:53:40.515Z,0
2017-04-06T02:54:53.083Z,0
2017-04-06T02:56:05.629Z,0
2017-04-06T02:57:17.850Z,0
2017-04-06T02:58:30.371Z,0
2017-04-06T02:59:42.867Z,0
2017-04-06T03:00:54.793Z,0
2017-04-06T03:02:07.330Z,0
2017-04-06T03:03:19.851Z,0
2017-04-06T03:04:32.373Z,0
2017-04-06T03:05:44.596Z,0
2017-04-06T03:06:57.114Z,0
2017-04-06T03:08:09.310Z,0
2017-04-06T03:09:21.823Z,0
2017-04-06T03:10:34.052Z,0
2017-04-06T03:11:46.579Z,0
2017-04-06T03:12:59.368Z,0
2017-04-06T03:14:11.864Z,0
2017-04-06T03:15:23.767Z,0
2017-04-06T03:16:36.348Z,0
2017-04-06T03:17:48.573Z,0
2017-04-06T03:19:01.102Z,0
2017-04-06T03:20:13.337Z,0
2017-04-06T03:21:25.869Z,0
2017-04-06T03:22:38.411Z,0
2017-04-06T03:23:50.934Z,0
2017-04-06T03:25:03.453Z,0
2017-04-06T03:26:15.973Z,0
2017-04-06T03:27:28.499Z,0
2017-04-06T03:28:41.043Z,0
2017-04-06T03:29:52.961Z,0
2017-04-06T03:31:05.483Z,0
2017-04-06T03:32:17.982Z,0
2017-04-06T03:33:30.499Z,0
2017-04-06T03:34:42.995Z,0
2017-04-06T03:35:55.490Z,0
2017-04-06T03:37:08.040Z,0
2017-04-06T03:38:20.532Z,0
2017-04-06T03:39:32.757Z,0
2017-04-06T03:40:45.602Z,0
2017-04-06T03:41:58.141Z,0
2017-04-06T03:43:10.345Z,0
2017-04-06T03:44:22.858Z,0
2017-04-06T03:45:35.633Z,0
2017-04-06T03:46:48.136Z,0
2017-04-06T03:48:00.675Z,0
2017-04-06T03:49:12.895Z,0
2017-04-06T03:50:25.109Z,0
2017-04-06T03:51:37.037Z,0
2017-04-06T03:52:49.586Z,0
2017-04-06T03:54:02.104Z,4
2017-04-06T03:55:14.299Z,4
2017-04-06T03:56:26.517Z,4
2017-04-06T03:57:38.445Z,0
2017-04-06T03:58:50.968Z,4
2017-04-06T04:00:03.490Z,4
2017-04-06T04:01:15.985Z,4
2017-04-06T04:02:28.522Z,8
2017-04-06T04:03:41.021Z,8
2017-04-06T04:04:52.942Z,8
2017-04-06T04:06:05.456Z,12
2017-04-06T04:07:17.683Z,12
2017-04-06T04:08:29.886Z,12
2017-04-06T04:09:42.431Z,12
2017-04-06T04:10:54.972Z,16
2017-04-06T04:12:07.469Z,20
2017-04-06T04:13:19.671Z,28
2017-04-06T04:14:31.877Z,28
2017-04-06T04:15:44.383Z,32
2017-04-06T04:16:56.880Z,48
2017-04-06T04:18:09.397Z,64
2017-04-06T04:19:21.911Z,72
2017-04-06T04:20:34.157Z,84
2017-04-06T04:21:46.360Z,88
2017-04-06T04:22:58.883Z,100
2017-04-06T04:24:11.433Z,112
2017-04-06T04:25:23.926Z,120
2017-04-06T04:26:36.465Z,120
2017-04-06T04:27:48.995Z,144
2017-04-06T04:29:01.511Z,152
2017-04-06T04:30:14.032Z,184
2017-04-06T04:31:26.562Z,204
2017-04-06T04:32:38.477Z,244
2017-04-06T04:33:50.990Z,304
2017-04-06T04:35:03.519Z,316
2017-04-06T04:36:16.036Z,340
2017-04-06T04:37:28.550Z,416
2017-04-06T04:38:41.096Z,476
2017-04-06T04:39:53.624Z,516
2017-04-06T04:41:05.853Z,628
2017-04-06T04:42:18.111Z,704
2017-04-06T04:43:30.663Z,748
2017-04-06T04:44:43.183Z,824
2017-04-06T04:45:55.732Z,852
2017-04-06T04:47:08.245Z,912
2017-04-06T04:48:20.748Z,964
2017-04-06T04:49:33.310Z,1040
2017-04-06T04:50:45.858Z,1124
2017-04-06T04:51:58.100Z,1248
2017-04-06T04:53:10.632Z,1272
2017-04-06T04:54:23.175Z,1388
2017-04-06T04:55:35.696Z,1352
2017-04-06T04:56:48.217Z,1344
2017-04-06T04:58:00.741Z,1640
2017-04-06T04:59:13.283Z,1860
2017-04-06T05:00:25.834Z,1572
2017-04-06T05:01:38.352Z,1560
2017-04-06T05:02:50.871Z,1668
2017-04-06T05:04:03.371Z,1644
2017-04-06T05:05:14.996Z,1672
2017-04-06T05:06:27.509Z,1704
2017-04-06T05:07:40.030Z,1768
2017-04-06T05:08:52.551Z,1860
2017-04-06T05:10:05.064Z,1860
2017-04-06T05:11:17.620Z,1912
2017-04-06T05:12:30.480Z,2100
2017-04-06T05:13:43.013Z,2192
2017-04-06T05:14:55.558Z,2284
2017-04-06T05:16:08.093Z,2304
2017-04-06T05:17:20.647Z,2488
2017-04-06T05:18:32.876Z,2540
2017-04-06T05:19:45.093Z,2604
2017-04-06T05:20:57.627Z,2672
2017-04-06T05:22:10.157Z,2952
2017-04-06T05:23:22.922Z,2704
2017-04-06T05:24:35.468Z,3260
2017-04-06T05:25:47.985Z,3592
2017-04-06T05:27:00.519Z,3324
2017-04-06T05:28:13.038Z,2712
2017-04-06T05:29:25.586Z,2648
2017-04-06T05:30:38.123Z,2752
2017-04-06T05:31:50.674Z,3088
2017-04-06T05:33:03.203Z,3872
2017-04-06T05:34:15.736Z,4328
2017-04-06T05:35:27.939Z,3440
2017-04-06T05:36:40.474Z,3200
2017-04-06T05:37:53.003Z,3152
2017-04-06T05:39:05.519Z,3220
2017-04-06T05:40:18.053Z,5256
2017-04-06T05:41:30.570Z,4224
2017-04-06T05:42:42.786Z,3380
2017-04-06T05:43:55.332Z,3532
2017-04-06T05:45:07.882Z,3612
2017-04-06T05:46:20.428Z,4504
2017-04-06T05:47:32.975Z,4744
2017-04-06T05:48:45.523Z,6192
2017-04-06T05:49:58.065Z,3800
2017-04-06T05:51:10.311Z,3728
2017-04-06T05:52:22.822Z,3820
2017-04-06T05:53:35.349Z,3860
2017-04-06T05:54:47.846Z,4940
2017-04-06T05:56:00.370Z,7104
2017-04-06T05:57:12.890Z,7576
2017-04-06T05:58:25.439Z,5152
2017-04-06T05:59:37.982Z,4460
2017-04-06T06:00:50.210Z,6728
2017-04-06T06:02:02.763Z,4716
2017-04-06T06:03:15.267Z,6252
2017-04-06T06:04:27.465Z,5720
2017-04-06T06:05:39.686Z,4756
2017-04-06T06:06:51.606Z,6568
2017-04-06T06:08:04.104Z,9608
2017-04-06T06:09:16.629Z,9460
2017-04-06T06:10:28.535Z,9852
2017-04-06T06:11:41.066Z,9672
2017-04-06T06:12:53.609Z,5100
2017-04-06T06:14:05.821Z,5180
2017-04-06T06:15:18.031Z,5844
2017-04-06T06:16:30.576Z,6704
2017-04-06T06:17:43.098Z,10164
2017-04-06T06:18:55.641Z,12940
2017-04-06T06:20:08.168Z,9592
2017-04-06T06:21:20.426Z,7756
2017-04-06T06:22:32.947Z,6488
2017-04-06T06:23:45.476Z,4900
2017-04-06T06:24:57.721Z,5144
2017-04-06T06:26:10.242Z,5228
2017-04-06T06:27:22.464Z,6448
2017-04-06T06:28:35.034Z,7924
2017-04-06T06:29:47.554Z,10032
2017-04-06T06:30:59.794Z,7568
2017-04-06T06:32:12.365Z,12992
2017-04-06T06:33:24.291Z,12184
2017-04-06T06:34:36.785Z,13036
2017-04-06T06:35:49.300Z,7340
2017-04-06T06:37:01.848Z,5636
2017-04-06T06:38:14.404Z,6152
2017-04-06T06:39:27.147Z,5868
2017-04-06T06:40:39.694Z,7600
2017-04-06T06:41:52.215Z,8428
2017-04-06T06:43:04.739Z,9640
2017-04-06T06:44:17.282Z,8524
2017-04-06T06:45:29.506Z,12156
2017-04-06T06:46:41.747Z,7568
2017-04-06T06:47:53.990Z,7668
2017-04-06T06:49:06.486Z,7292
2017-04-06T06:50:19.035Z,10512
2017-04-06T06:51:31.596Z,11188
2017-04-06T06:52:44.149Z,15552
2017-04-06T06:53:56.713Z,6640
2017-04-06T06:55:09.248Z,23360
2017-04-06T06:56:21.828Z,22720
2017-04-06T06:57:34.332Z,34656
2017-04-06T06:58:46.874Z,30560
2017-04-06T06:59:58.777Z,27712
2017-04-06T07:01:11.299Z,26944
2017-04-06T07:02:23.494Z,29088
2017-04-06T07:03:36.041Z,29312
2017-04-06T07:04:48.578Z,6500
2017-04-06T07:06:01.087Z,10740
2017-04-06T07:07:13.625Z,19360
2017-04-06T07:08:25.846Z,17728
2017-04-06T07:09:38.366Z,11032
2017-04-06T07:10:50.915Z,13020
2017-04-06T07:12:03.162Z,10296
2017-04-06T07:13:15.705Z,9164
2017-04-06T07:14:28.259Z,12520
2017-04-06T07:15:40.507Z,15432
2017-04-06T07:16:53.019Z,12116
2017-04-06T07:18:05.584Z,17236
2017-04-06T07:19:18.127Z,19072
2017-04-06T07:20:30.055Z,18080
2017-04-06T07:21:42.567Z,19200
2017-04-06T07:22:55.125Z,18944
2017-04-06T07:24:07.667Z,26240
2017-04-06T07:25:19.868Z,16544
2017-04-06T07:26:32.118Z,18976
2017-04-06T07:27:44.680Z,18496
2017-04-06T07:28:56.894Z,19552
2017-04-06T07:30:09.122Z,20320
2017-04-06T07:31:21.646Z,19232
2017-04-06T07:32:33.889Z,16468
2017-04-06T07:33:46.085Z,19552
2017-04-06T07:34:58.318Z,23264
2017-04-06T07:36:10.552Z,33408
2017-04-06T07:37:22.806Z,40288
2017-04-06T07:38:35.318Z,30976
2017-04-06T07:39:47.544Z,24320
2017-04-06T07:41:00.089Z,16992
2017-04-06T07:42:12.660Z,15392
2017-04-06T07:43:25.207Z,15008
2017-04-06T07:44:37.748Z,16216
2017-04-06T07:45:50.287Z,17184
2017-04-06T07:47:02.515Z,16364
2017-04-06T07:48:14.461Z,15180
2017-04-06T07:49:26.979Z,14512
2017-04-06T07:50:39.505Z,14272
2017-04-06T07:51:52.025Z,13964
2017-04-06T07:53:04.562Z,13316
2017-04-06T07:54:17.086Z,9556
2017-04-06T07:55:29.615Z,5856
2017-04-06T07:56:42.157Z,5488
2017-04-06T07:57:54.696Z,5604
2017-04-06T07:59:07.200Z,5736
2017-04-06T08:00:19.123Z,5516
2017-04-06T08:01:31.040Z,5560
2017-04-06T08:02:43.591Z,5660
2017-04-06T08:03:56.129Z,5392
2017-04-06T08:05:08.682Z,5236
2017-04-06T08:06:21.253Z,5320
2017-04-06T08:07:33.504Z,5492
2017-04-06T08:08:46.042Z,5548
2017-04-06T08:09:58.587Z,5184
2017-04-06T08:11:10.842Z,5212
2017-04-06T08:12:23.059Z,5252
2017-04-06T08:13:35.604Z,5372
2017-04-06T08:14:48.141Z,5504
2017-04-06T08:16:00.659Z,5496
2017-04-06T08:17:12.881Z,5452
2017-04-06T08:18:25.451Z,5492
2017-04-06T08:19:37.100Z,5444
2017-04-06T08:20:49.350Z,5304
2017-04-06T08:22:01.871Z,5288
2017-04-06T08:23:14.414Z,5280
2017-04-06T08:24:26.919Z,5432
2017-04-06T08:25:39.412Z,5296
2017-04-06T08:26:51.959Z,5316
2017-04-06T08:28:04.501Z,5464
2017-04-06T08:29:16.715Z,5372
2017-04-06T08:30:28.663Z,5356
2017-04-06T08:31:40.906Z,5316
2017-04-06T08:32:53.461Z,5340
2017-04-06T08:34:05.998Z,5368
2017-04-06T08:35:17.973Z,5504
2017-04-06T08:36:30.197Z,5892
2017-04-06T08:37:42.748Z,5656
2017-04-06T08:38:54.981Z,5604
2017-04-06T08:40:07.494Z,5528
2017-04-06T08:41:20.035Z,5328
2017-04-06T08:42:32.279Z,5336
2017-04-06T08:43:44.497Z,5236
2017-04-06T08:44:57.040Z,5272
2017-04-06T08:46:09.569Z,5296
2017-04-06T08:47:22.128Z,5520
2017-04-06T08:48:34.374Z,6392
2017-04-06T08:49:46.922Z,5984
2017-04-06T08:50:59.170Z,6500
2017-04-06T08:52:11.715Z,8428
2017-04-06T08:53:24.257Z,4968
2017-04-06T08:54:36.486Z,5752
2017-04-06T08:55:48.985Z,5624
2017-04-06T08:57:01.520Z,5888
2017-04-06T08:58:13.752Z,6888
2017-04-06T08:59:25.987Z,6692
2017-04-06T09:00:38.515Z,6580
2017-04-06T09:01:51.062Z,5268
2017-04-06T09:03:03.279Z,6088
2017-04-06T09:04:15.799Z,7952
2017-04-06T09:05:28.300Z,7944
2017-04-06T09:06:40.496Z,11040
2017-04-06T09:07:53.037Z,13756
2017-04-06T09:09:05.562Z,8980
2017-04-06T09:10:18.086Z,7152
2017-04-06T09:11:30.645Z,6604
2017-04-06T09:12:42.870Z,9988
2017-04-06T09:13:55.105Z,15392
2017-04-06T09:15:07.366Z,10728
2017-04-06T09:16:19.615Z,9976
2017-04-06T09:17:31.864Z,11576
2017-04-06T09:18:44.073Z,12916
2017-04-06T09:19:56.600Z,9804
2017-04-06T09:21:08.825Z,9396
2017-04-06T09:22:21.685Z,14804
2017-04-06T09:23:34.207Z,14996
2017-04-06T09:24:46.434Z,10772
2017-04-06T09:25:58.954Z,10000
2017-04-06T09:27:11.479Z,9820
2017-04-06T09:28:23.726Z,8700
2017-04-06T09:29:35.974Z,10804
2017-04-06T09:30:48.521Z,15076
2017-04-06T09:32:00.765Z,16856
2017-04-06T09:33:13.326Z,14164
2017-04-06T09:34:25.844Z,10216
2017-04-06T09:35:37.772Z,9968
2017-04-06T09:36:50.298Z,10164
2017-04-06T09:38:02.838Z,11712
2017-04-06T09:39:15.056Z,16172
2017-04-06T09:40:27.577Z,17920
2017-04-06T09:41:40.107Z,15616
2017-04-06T09:42:52.647Z,13728
2017-04-06T09:44:05.210Z,15612
2017-04-06T09:45:17.458Z,20192
2017-04-06T09:46:29.988Z,17312
2017-04-06T09:47:42.232Z,13144
2017-04-06T09:48:54.470Z,12808
2017-04-06T09:50:06.726Z,12808
2017-04-06T09:51:18.951Z,9740
2017-04-06T09:52:31.497Z,8416
2017-04-06T09:53:43.436Z,10188
2017-04-06T09:54:55.657Z,9756
2017-04-06T09:56:08.183Z,10716
2017-04-06T09:57:20.729Z,15216
2017-04-06T09:58:33.269Z,15648
2017-04-06T09:59:45.795Z,10836
2017-04-06T10:00:58.331Z,13672
2017-04-06T10:02:10.288Z,16844
2017-04-06T10:03:22.828Z,13448
2017-04-06T10:04:34.753Z,10216
2017-04-06T10:05:46.988Z,12184
2017-04-06T10:06:59.525Z,11148
2017-04-06T10:08:12.064Z,13084
2017-04-06T10:09:24.012Z,17424
2017-04-06T10:10:36.249Z,13128
2017-04-06T10:11:48.800Z,7544
2017-04-06T10:13:01.024Z,8256
2017-04-06T10:14:13.566Z,9540
2017-04-06T10:15:25.792Z,9116
2017-04-06T10:16:38.036Z,9248
2017-04-06T10:17:50.257Z,10484
2017-04-06T10:19:02.805Z,13844
2017-04-06T10:20:15.353Z,17244
2017-04-06T10:21:27.885Z,16168
2017-04-06T10:22:40.438Z,12828
2017-04-06T10:23:52.958Z,12540
2017-04-06T10:25:05.505Z,10712
2017-04-06T10:26:18.034Z,8828
2017-04-06T10:27:30.272Z,12008
2017-04-06T10:28:42.496Z,18272
2017-04-06T10:29:55.016Z,20736
2017-04-06T10:31:07.261Z,16996
2017-04-06T10:32:19.480Z,16436
2017-04-06T10:33:31.985Z,13880
2017-04-06T10:34:44.553Z,13512
2017-04-06T10:35:57.069Z,12232
2017-04-06T10:37:09.582Z,10720
2017-04-06T10:38:22.417Z,13668
2017-04-06T10:39:34.648Z,40544
2017-04-06T10:40:46.576Z,19968
2017-04-06T10:41:59.126Z,16292
2017-04-06T10:43:11.685Z,16500
2017-04-06T10:44:24.218Z,11380
2017-04-06T10:45:36.164Z,11508
2017-04-06T10:46:48.710Z,26656
2017-04-06T10:48:00.931Z,39136
2017-04-06T10:49:13.496Z,16512
2017-04-06T10:50:25.448Z,13012
2017-04-06T10:51:37.693Z,74400
2017-04-06T10:52:50.256Z,77632
2017-04-06T10:54:02.474Z,78688
2017-04-06T10:55:15.007Z,79392
2017-04-06T10:56:27.527Z,82112
2017-04-06T10:57:40.076Z,85536
2017-04-06T10:58:52.318Z,16080
2017-04-06T11:00:04.861Z,37280
2017-04-06T11:01:17.378Z,11716
2017-04-06T11:02:29.908Z,83456
2017-04-06T11:03:42.148Z,15808
2017-04-06T11:04:54.665Z,19392
2017-04-06T11:06:07.191Z,17276
2017-04-06T11:07:19.714Z,87072
2017-04-06T11:08:32.253Z,87328
2017-04-06T11:09:44.806Z,62432
2017-04-06T11:10:57.349Z,17420
2017-04-06T11:12:09.573Z,37824
2017-04-06T11:13:21.495Z,12140
2017-04-06T11:14:34.054Z,80256
2017-04-06T11:15:46.603Z,76384
2017-04-06T11:16:59.154Z,54656
2017-04-06T11:18:11.695Z,11956
2017-04-06T11:19:24.220Z,9920
2017-04-06T11:20:36.744Z,17144
2017-04-06T11:21:49.537Z,15456
2017-04-06T11:23:02.087Z,14036
2017-04-06T11:24:14.646Z,19456
2017-04-06T11:25:27.175Z,18688
2017-04-06T11:26:39.101Z,24064
2017-04-06T11:27:51.620Z,21472
2017-04-06T11:29:03.866Z,15644
2017-04-06T11:30:16.415Z,9968
2017-04-06T11:31:28.709Z,37056
2017-04-06T11:32:40.959Z,69280
2017-04-06T11:33:53.493Z,77408
2017-04-06T11:35:06.042Z,79360
2017-04-06T11:36:18.619Z,10328
2017-04-06T11:37:31.165Z,16608
2017-04-06T11:38:43.711Z,20736
2017-04-06T11:39:55.935Z,22400
2017-04-06T11:41:08.453Z,21600
2017-04-06T11:42:20.692Z,14112
2017-04-06T11:43:33.260Z,77760
2017-04-06T11:44:45.530Z,74208
2017-04-06T11:45:58.098Z,69920
2017-04-06T11:47:10.668Z,72096
2017-04-06T11:48:23.201Z,28000
2017-04-06T11:49:35.472Z,10472
2017-04-06T11:50:48.040Z,28672
2017-04-06T11:52:00.289Z,82848
2017-04-06T11:53:12.540Z,21376
2017-04-06T11:54:25.097Z,10352
2017-04-06T11:55:37.327Z,76096
2017-04-06T11:56:49.564Z,83776
2017-04-06T11:58:01.795Z,27328
2017-04-06T11:59:14.328Z,18432
2017-04-06T12:00:26.888Z,14836
2017-04-06T12:01:39.127Z,13436
2017-04-06T12:02:51.668Z,13300
2017-04-06T12:04:04.197Z,13484
2017-04-06T12:05:16.768Z,15824
2017-04-06T12:06:29.331Z,57056
2017-04-06T12:07:41.899Z,14916
2017-04-06T12:08:54.445Z,15288
2017-04-06T12:10:06.978Z,13736
2017-04-06T12:11:19.497Z,12976
2017-04-06T12:12:32.058Z,9928
2017-04-06T12:13:44.588Z,8524
2017-04-06T12:14:57.110Z,10192
2017-04-06T12:16:09.333Z,12568
2017-04-06T12:17:21.874Z,16664
2017-04-06T12:18:34.419Z,20160
2017-04-06T12:19:46.941Z,19712
2017-04-06T12:20:59.486Z,15528
2017-04-06T12:22:12.018Z,14324
2017-04-06T12:23:24.460Z,15532
2017-04-06T12:24:36.704Z,16836
2017-04-06T12:25:48.963Z,17952
2017-04-06T12:27:01.470Z,18080
2017-04-06T12:28:13.712Z,15876
2017-04-06T12:29:26.260Z,14240
2017-04-06T12:30:38.784Z,13736
2017-04-06T12:31:51.305Z,14496
2017-04-06T12:33:03.845Z,15256
2017-04-06T12:34:16.347Z,15932
2017-04-06T12:35:28.537Z,12976
2017-04-06T12:36:40.761Z,12344
2017-04-06T12:37:53.325Z,12580
2017-04-06T12:39:05.252Z,13756
2017-04-06T12:40:17.821Z,11432
2017-04-06T12:41:30.345Z,12108
2017-04-06T12:42:42.888Z,14364
2017-04-06T12:43:55.406Z,16368
2017-04-06T12:45:07.632Z,19552
2017-04-06T12:46:20.203Z,20384
2017-04-06T12:47:32.425Z,18432
2017-04-06T12:48:44.967Z,14908
2017-04-06T12:49:57.489Z,13480
2017-04-06T12:51:10.027Z,12912
2017-04-06T12:52:22.255Z,14064
2017-04-06T12:53:34.476Z,16352
2017-04-06T12:54:46.975Z,18944
2017-04-06T12:55:59.547Z,20064
2017-04-06T12:57:12.088Z,16692
2017-04-06T12:58:24.605Z,13152
2017-04-06T12:59:37.124Z,11096
2017-04-06T13:00:49.672Z,10020
2017-04-06T13:02:01.626Z,9756
2017-04-06T13:03:14.165Z,8200
2017-04-06T13:04:26.389Z,6696
2017-04-06T13:05:38.606Z,7024
2017-04-06T13:06:50.862Z,6788
2017-04-06T13:08:03.395Z,6468
2017-04-06T13:09:15.639Z,6876
2017-04-06T13:10:28.199Z,9080
2017-04-06T13:11:40.476Z,11396
2017-04-06T13:12:53.011Z,12148
2017-04-06T13:14:05.534Z,10232
2017-04-06T13:15:17.479Z,9836
2017-04-06T13:16:29.391Z,9740
2017-04-06T13:17:41.911Z,11480
2017-04-06T13:18:54.440Z,12160
2017-04-06T13:20:06.954Z,11188
2017-04-06T13:21:19.482Z,11024
2017-04-06T13:22:31.710Z,10200
2017-04-06T13:23:44.254Z,8700
2017-04-06T13:24:56.498Z,8932
2017-04-06T13:26:08.745Z,8524
2017-04-06T13:27:20.958Z,8696
2017-04-06T13:28:33.478Z,9236
2017-04-06T13:29:45.708Z,8972
2017-04-06T13:30:58.242Z,9448
2017-04-06T13:32:10.770Z,10388
2017-04-06T13:33:23.294Z,9796
2017-04-06T13:34:35.562Z,10808
2017-04-06T13:35:47.787Z,13880
2017-04-06T13:37:00.057Z,16564
2017-04-06T13:38:12.296Z,16448
2017-04-06T13:39:24.846Z,15416
2017-04-06T13:40:37.070Z,13184
2017-04-06T13:41:49.613Z,11292
2017-04-06T13:43:02.133Z,10260
2017-04-06T13:44:14.357Z,10700
2017-04-06T13:45:26.628Z,9304
2017-04-06T13:46:39.163Z,9720
2017-04-06T13:47:51.410Z,10044
2017-04-06T13:49:03.955Z,9976
2017-04-06T13:50:16.464Z,10340
2017-04-06T13:51:28.706Z,10844
2017-04-06T13:52:40.647Z,12884
2017-04-06T13:53:53.193Z,11308
2017-04-06T13:55:05.710Z,9420
2017-04-06T13:56:18.234Z,10988
2017-04-06T13:57:30.476Z,12836
2017-04-06T13:58:43.022Z,12812
2017-04-06T13:59:55.554Z,12400
2017-04-06T14:01:08.115Z,13448
2017-04-06T14:02:20.649Z,13460
2017-04-06T14:03:33.164Z,14252
2017-04-06T14:04:45.685Z,13660
2017-04-06T14:05:57.934Z,13404
2017-04-06T14:07:13.809Z,13140
2017-04-06T14:08:26.097Z,11208
2017-04-06T14:09:38.665Z,9284
2017-04-06T14:10:50.910Z,8992
2017-04-06T14:12:03.431Z,8560
2017-04-06T14:13:15.963Z,7464
2017-04-06T14:14:28.528Z,7248
2017-04-06T14:15:40.729Z,8372
2017-04-06T14:16:52.973Z,9444
2017-04-06T14:18:05.214Z,10636
2017-04-06T14:19:17.740Z,11908
2017-04-06T14:20:30.299Z,13740
2017-04-06T14:21:42.520Z,13404
2017-04-06T14:22:54.756Z,12332
2017-04-06T14:24:07.294Z,12272
2017-04-06T14:25:19.533Z,12368
2017-04-06T14:26:32.086Z,12040
2017-04-06T14:27:44.007Z,12328
2017-04-06T14:28:55.932Z,12652
2017-04-06T14:30:08.227Z,11252
2017-04-06T14:31:20.474Z,10480
2017-04-06T14:32:33.007Z,9600
2017-04-06T14:33:45.237Z,9112
2017-04-06T14:34:57.762Z,10120
2017-04-06T14:36:10.335Z,11360
2017-04-06T14:37:22.867Z,11476
2017-04-06T14:38:35.395Z,11400
2017-04-06T14:39:47.921Z,11460
2017-04-06T14:41:00.466Z,11364
2017-04-06T14:42:13.011Z,10852
2017-04-06T14:43:25.574Z,9628
2017-04-06T14:44:38.118Z,8632
2017-04-06T14:45:50.344Z,8552
2017-04-06T14:47:02.567Z,9620
2017-04-06T14:48:15.088Z,10752
2017-04-06T14:49:27.611Z,11104
2017-04-06T14:50:40.133Z,11512
2017-04-06T14:51:52.675Z,11892
2017-04-06T14:53:04.892Z,11708
2017-04-06T14:54:17.409Z,10872
2017-04-06T14:55:29.942Z,10328
2017-04-06T14:56:42.461Z,9744
2017-04-06T14:57:54.657Z,9684
2017-04-06T14:59:07.401Z,9328
2017-04-06T15:00:19.927Z,9172
2017-04-06T15:01:32.467Z,8980
2017-04-06T15:02:44.692Z,9252
2017-04-06T15:03:57.238Z,8984
2017-04-06T15:05:09.755Z,9316
2017-04-06T15:06:22.305Z,10172
2017-04-06T15:07:34.851Z,10656
2017-04-06T15:08:47.398Z,10756
2017-04-06T15:09:59.956Z,11024
2017-04-06T15:11:12.510Z,10888
2017-04-06T15:12:25.048Z,10688
2017-04-06T15:13:37.581Z,10392
2017-04-06T15:14:50.129Z,10848
2017-04-06T15:16:02.647Z,11296
2017-04-06T15:17:15.194Z,11584
2017-04-06T15:18:27.739Z,11892
2017-04-06T15:19:40.292Z,12104
2017-04-06T15:20:52.874Z,11904
2017-04-06T15:22:05.376Z,11568
2017-04-06T15:23:17.598Z,10992
2017-04-06T15:24:30.140Z,10564
2017-04-06T15:25:42.665Z,10384
2017-04-06T15:26:55.198Z,10460
2017-04-06T15:28:07.431Z,10460
2017-04-06T15:29:19.676Z,10044
2017-04-06T15:30:32.226Z,9860
2017-04-06T15:31:44.441Z,10036
2017-04-06T15:32:56.961Z,10360
2017-04-06T15:34:09.477Z,10564
2017-04-06T15:35:21.703Z,10556
2017-04-06T15:36:34.205Z,10580
2017-04-06T15:37:46.449Z,10524
2017-04-06T15:38:58.990Z,10148
2017-04-06T15:40:11.212Z,9944
2017-04-06T15:41:23.761Z,9784
2017-04-06T15:42:36.285Z,9620
2017-04-06T15:43:48.848Z,9544
2017-04-06T15:45:01.370Z,9384
2017-04-06T15:46:13.587Z,9432
2017-04-06T15:47:26.129Z,9948
2017-04-06T15:48:38.690Z,10140
2017-04-06T15:49:51.207Z,9932
2017-04-06T15:51:03.733Z,9708
2017-04-06T15:52:15.949Z,9604
2017-04-06T15:53:28.494Z,8968
2017-04-06T15:54:41.037Z,7980
2017-04-06T15:55:52.960Z,6800
2017-04-06T15:57:05.484Z,5976
2017-04-06T15:58:18.005Z,5624
2017-04-06T15:59:30.546Z,5676
2017-04-06T16:00:43.042Z,5940
2017-04-06T16:01:55.566Z,6076
2017-04-06T16:03:07.801Z,6360
2017-04-06T16:04:20.326Z,6564
2017-04-06T16:05:32.550Z,7040
2017-04-06T16:06:45.070Z,7704
2017-04-06T16:07:57.635Z,8416
2017-04-06T16:09:10.180Z,9188
2017-04-06T16:10:22.710Z,9692
2017-04-06T16:11:35.233Z,9720
2017-04-06T16:12:47.479Z,9324
2017-04-06T16:14:00.017Z,8784
2017-04-06T16:15:12.518Z,8088
2017-04-06T16:16:25.039Z,7096
2017-04-06T16:17:37.285Z,6552